This is the latest recevied weather packets stored in our database for station/object OE5ERN-10. If no packets are shown the sender has not sent any weather packets the latest 1 day(s).
| Time | Temp. | Humidity | Pressure | Rain* | Wind** | Luminosity | Snow |
|---|---|---|---|---|---|---|---|
| 1777969533 | 39.44° C | 23% | 1012 hPa | 0 mm | 0 m/s | - | - |
| 1777968633 | 37.78° C | 24% | 1012 hPa | 0 mm | 0 m/s | - | - |
| 1777967733 | 38.89° C | 23% | 1012.1 hPa | 0 mm | 1.79 m/s, 180° | - | - |
| 1777966842 | 37.78° C | 25% | 1012.3 hPa | 0 mm | 0 m/s | - | - |
| 1777965933 | 35° C | 26% | 1012.2 hPa | 0 mm | 0 m/s | - | - |
| 1777965033 | 38.33° C | 25% | 1012.4 hPa | 0 mm | 0.89 m/s, 90° | - | - |
| 1777964133 | 36.67° C | 27% | 1012.7 hPa | 0 mm | 0 m/s | - | - |
| 1777963233 | 33.89° C | 31% | 1012.7 hPa | 0 mm | 0 m/s | - | - |
| 1777962333 | 32.78° C | 31% | 1012.7 hPa | 0 mm | 0.45 m/s, 112° | - | - |
| 1777961433 | 32.78° C | 32% | 1012.8 hPa | 0 mm | 0 m/s | - | - |
| 1777960533 | 29.44° C | 38% | 1012.8 hPa | 0 mm | 0 m/s | - | - |
| 1777959633 | 20.56° C | 50% | 1012.9 hPa | 0 mm | 0 m/s | - | - |
| 1777958733 | 15.56° C | 67% | 1013 hPa | 0 mm | 0 m/s | - | - |
| 1777957833 | 15° C | 67% | 1012.9 hPa | 0 mm | 0 m/s | - | - |
| 1777956933 | 13.89° C | 71% | 1012.9 hPa | 0 mm | 0 m/s | - | - |
| 1777956033 | 12.78° C | 72% | 1012.8 hPa | 0 mm | 0 m/s | - | - |
| 1777955133 | 12.22° C | 73% | 1013 hPa | 0 mm | 0 m/s | - | - |
| 1777954233 | 11.67° C | 74% | 1012.9 hPa | 0 mm | 0 m/s | - | - |
| 1777953333 | 11.67° C | 73% | 1012.8 hPa | 0 mm | 0.89 m/s, 315° | - | - |
| 1777952433 | 11.67° C | 71% | 1012.8 hPa | 0 mm | 0 m/s | - | - |
| 1777951533 | 12.22° C | 71% | 1012.9 hPa | 0 mm | 0.45 m/s, 337° | - | - |
| 1777950633 | 12.22° C | 69% | 1013 hPa | 0 mm | 0 m/s | - | - |
| 1777949733 | 12.78° C | 69% | 1013 hPa | 0 mm | 0 m/s | - | - |
* Rain latest hour (hover to see other rain measurements)
** Current wind speed in m/s (hover to see current wind gust speed)